Terminal Aerodrome Forecast
Issued by NWS

Home | Current Version | Previous Version | Graphics & Text | Print | Product List | Glossary On
Versions: 1 2 3 4 5 6 7 8 9 10 11 12 13 14 15 16 17 18 19 20 21 22 23 24 25 26 27 28 29 30
582
FTUS43 KGRB 271126
TAFATW
TAF
KATW 271126Z 2712/2812 19005KT P6SM SCT060
      TEMPO 2712/2714 BKN060
     FM271500 18006KT P6SM FEW100
     FM280100 17005KT P6SM BKN090
     FM280600 16006KT P6SM OVC035
     FM280800 15007KT 5SM -RA BR BKN015 OVC030=

USA.gov is the U.S. government's official web portal to all federal, state and local government web resources and services.